Destinations Sandefjord Airport Torp

Sandefjord Airport Torp (ENTO / TRF)

Flights to Sandefjord Airport Torp

Flight number From ETE Dispatch
SPY-2216 EGFF Cardiff International Airport 02:15
SPY-2426 EGPH Edinburgh Airport 01:40
SPY-308 EHGG Groningen Airport Eelde 01:40
SPY-3109 ENVA Trondheim Airport Værnes 01:20

Flights from Sandefjord Airport Torp

Flight number To ETE Dispatch
SPY-2217 EGFF Cardiff International Airport 02:15
SPY-2427 EGPH Edinburgh Airport 01:40
SPY-309 EHGG Groningen Airport Eelde 01:45
SPY-3110 ENVA Trondheim Airport Værnes 01:30
About

Sandefjord Airport Torp facts

Sandefjord Airport Torp is located in Sandefjord at an elevation of 87.2 meters or 286 feet.

Currently, Speedy Airlines serves 8 flights to and from Sandefjord Airport Torp.

Detailed airport info

Route map

Weather

Current weather

METAR

METAR

Metar data retrieved Sunday, 21 July 2024 at 18:55 UTC

ENTO 211820Z 18005KT CAVOK 22/15 Q1009 NOSIG
Wind Temperature
5 kt 22c